sensor_id;sensor_type;location;lat;lon;timestamp;P1;durP1;ratioP1;P2;durP2;ratioP2
23400;SDS011;11873;49.300;8.920;2023-09-07T00:04:09;4.60;;;2.87;;
23400;SDS011;11873;49.300;8.920;2023-09-07T00:09:10;3.57;;;3.13;;
23400;SDS011;11873;49.300;8.920;2023-09-07T00:14:10;3.93;;;3.30;;
23400;SDS011;11873;49.300;8.920;2023-09-07T00:19:10;2.90;;;2.60;;
23400;SDS011;11873;49.300;8.920;2023-09-07T00:24:10;4.40;;;2.90;;
23400;SDS011;11873;49.300;8.920;2023-09-07T00:29:11;2.53;;;2.33;;
23400;SDS011;11873;49.300;8.920;2023-09-07T00:34:11;4.27;;;2.80;;
23400;SDS011;11873;49.300;8.920;2023-09-07T00:39:11;5.10;;;3.03;;
23400;SDS011;11873;49.300;8.920;2023-09-07T00:44:11;3.17;;;2.87;;
23400;SDS011;11873;49.300;8.920;2023-09-07T00:49:12;3.00;;;2.80;;
23400;SDS011;11873;49.300;8.920;2023-09-07T00:54:12;3.17;;;2.87;;
23400;SDS011;11873;49.300;8.920;2023-09-07T00:59:12;6.07;;;3.17;;
23400;SDS011;11873;49.300;8.920;2023-09-07T01:04:13;3.33;;;3.03;;
23400;SDS011;11873;49.300;8.920;2023-09-07T01:09:19;3.20;;;2.90;;
23400;SDS011;11873;49.300;8.920;2023-09-07T01:14:21;2.87;;;2.67;;
23400;SDS011;11873;49.300;8.920;2023-09-07T01:19:21;2.73;;;2.50;;
23400;SDS011;11873;49.300;8.920;2023-09-07T01:24:21;3.37;;;2.60;;
23400;SDS011;11873;49.300;8.920;2023-09-07T01:29:22;3.20;;;2.87;;
23400;SDS011;11873;49.300;8.920;2023-09-07T01:34:22;3.73;;;2.83;;
23400;SDS011;11873;49.300;8.920;2023-09-07T01:39:23;3.10;;;2.83;;
23400;SDS011;11873;49.300;8.920;2023-09-07T01:44:23;6.03;;;2.50;;
23400;SDS011;11873;49.300;8.920;2023-09-07T01:49:23;5.27;;;3.00;;
23400;SDS011;11873;49.300;8.920;2023-09-07T01:54:23;2.63;;;2.43;;
23400;SDS011;11873;49.300;8.920;2023-09-07T01:59:23;3.03;;;2.73;;
23400;SDS011;11873;49.300;8.920;2023-09-07T02:04:24;2.93;;;2.63;;
23400;SDS011;11873;49.300;8.920;2023-09-07T02:09:24;2.60;;;2.40;;
23400;SDS011;11873;49.300;8.920;2023-09-07T02:14:24;3.30;;;3.00;;
23400;SDS011;11873;49.300;8.920;2023-09-07T02:19:24;3.23;;;2.73;;
23400;SDS011;11873;49.300;8.920;2023-09-07T02:24:24;3.57;;;2.97;;
23400;SDS011;11873;49.300;8.920;2023-09-07T02:29:24;3.10;;;2.60;;
23400;SDS011;11873;49.300;8.920;2023-09-07T02:34:25;4.73;;;2.90;;
23400;SDS011;11873;49.300;8.920;2023-09-07T02:39:25;4.03;;;2.80;;
23400;SDS011;11873;49.300;8.920;2023-09-07T02:44:25;2.33;;;2.23;;
23400;SDS011;11873;49.300;8.920;2023-09-07T02:49:25;3.23;;;2.70;;
23400;SDS011;11873;49.300;8.920;2023-09-07T02:54:25;3.23;;;2.63;;
23400;SDS011;11873;49.300;8.920;2023-09-07T02:59:26;3.83;;;2.60;;
23400;SDS011;11873;49.300;8.920;2023-09-07T03:04:26;3.20;;;2.90;;
23400;SDS011;11873;49.300;8.920;2023-09-07T03:09:26;2.83;;;2.63;;
23400;SDS011;11873;49.300;8.920;2023-09-07T03:14:26;2.87;;;2.57;;
23400;SDS011;11873;49.300;8.920;2023-09-07T03:19:26;3.57;;;2.57;;
23400;SDS011;11873;49.300;8.920;2023-09-07T03:24:27;3.93;;;2.90;;
23400;SDS011;11873;49.300;8.920;2023-09-07T03:29:29;4.37;;;2.70;;
23400;SDS011;11873;49.300;8.920;2023-09-07T03:34:29;3.43;;;3.00;;
23400;SDS011;11873;49.300;8.920;2023-09-07T03:39:29;3.40;;;3.10;;
23400;SDS011;11873;49.300;8.920;2023-09-07T03:44:29;3.03;;;2.70;;
23400;SDS011;11873;49.300;8.920;2023-09-07T03:49:30;3.47;;;2.70;;
23400;SDS011;11873;49.300;8.920;2023-09-07T03:54:30;4.77;;;2.47;;
23400;SDS011;11873;49.300;8.920;2023-09-07T03:59:30;4.03;;;2.87;;
23400;SDS011;11873;49.300;8.920;2023-09-07T04:04:31;4.13;;;2.90;;
23400;SDS011;11873;49.300;8.920;2023-09-07T04:09:31;3.03;;;2.73;;
23400;SDS011;11873;49.300;8.920;2023-09-07T04:14:31;3.43;;;2.60;;
23400;SDS011;11873;49.300;8.920;2023-09-07T04:19:31;3.10;;;2.80;;
23400;SDS011;11873;49.300;8.920;2023-09-07T04:24:31;3.40;;;3.07;;
23400;SDS011;11873;49.300;8.920;2023-09-07T04:29:32;2.70;;;2.50;;
23400;SDS011;11873;49.300;8.920;2023-09-07T04:34:32;4.60;;;2.90;;
23400;SDS011;11873;49.300;8.920;2023-09-07T04:39:32;3.67;;;3.10;;
23400;SDS011;11873;49.300;8.920;2023-09-07T04:44:33;4.63;;;3.03;;
23400;SDS011;11873;49.300;8.920;2023-09-07T04:49:33;3.27;;;2.90;;
23400;SDS011;11873;49.300;8.920;2023-09-07T04:54:33;3.73;;;3.00;;
23400;SDS011;11873;49.300;8.920;2023-09-07T04:59:33;2.90;;;2.67;;
23400;SDS011;11873;49.300;8.920;2023-09-07T05:04:33;3.70;;;3.27;;
23400;SDS011;11873;49.300;8.920;2023-09-07T05:09:34;7.57;;;3.20;;
23400;SDS011;11873;49.300;8.920;2023-09-07T05:14:34;3.47;;;2.83;;
23400;SDS011;11873;49.300;8.920;2023-09-07T05:19:34;4.53;;;2.80;;
23400;SDS011;11873;49.300;8.920;2023-09-07T05:24:37;4.70;;;2.80;;
23400;SDS011;11873;49.300;8.920;2023-09-07T05:29:37;3.27;;;2.97;;
23400;SDS011;11873;49.300;8.920;2023-09-07T05:34:37;3.90;;;2.83;;
23400;SDS011;11873;49.300;8.920;2023-09-07T05:39:37;7.40;;;2.90;;
23400;SDS011;11873;49.300;8.920;2023-09-07T05:44:38;3.60;;;2.67;;
23400;SDS011;11873;49.300;8.920;2023-09-07T05:49:38;3.37;;;2.93;;
23400;SDS011;11873;49.300;8.920;2023-09-07T05:54:38;2.83;;;2.63;;
23400;SDS011;11873;49.300;8.920;2023-09-07T05:59:38;4.93;;;2.73;;
23400;SDS011;11873;49.300;8.920;2023-09-07T06:04:38;3.47;;;2.67;;
23400;SDS011;11873;49.300;8.920;2023-09-07T06:09:39;2.90;;;2.70;;
23400;SDS011;11873;49.300;8.920;2023-09-07T06:14:39;2.70;;;2.50;;
23400;SDS011;11873;49.300;8.920;2023-09-07T06:19:39;3.47;;;3.17;;
23400;SDS011;11873;49.300;8.920;2023-09-07T06:24:40;3.50;;;2.67;;
23400;SDS011;11873;49.300;8.920;2023-09-07T06:29:40;4.60;;;3.20;;
23400;SDS011;11873;49.300;8.920;2023-09-07T06:34:40;3.53;;;3.23;;
23400;SDS011;11873;49.300;8.920;2023-09-07T06:39:40;7.13;;;3.03;;
23400;SDS011;11873;49.300;8.920;2023-09-07T06:44:40;3.27;;;2.97;;
23400;SDS011;11873;49.300;8.920;2023-09-07T06:49:41;3.83;;;3.13;;
23400;SDS011;11873;49.300;8.920;2023-09-07T06:54:41;3.27;;;3.07;;
23400;SDS011;11873;49.300;8.920;2023-09-07T06:59:41;2.90;;;2.70;;
23400;SDS011;11873;49.300;8.920;2023-09-07T07:04:41;3.00;;;2.77;;
23400;SDS011;11873;49.300;8.920;2023-09-07T07:09:41;5.43;;;2.87;;
23400;SDS011;11873;49.300;8.920;2023-09-07T07:14:42;3.20;;;2.90;;
23400;SDS011;11873;49.300;8.920;2023-09-07T07:19:42;3.03;;;2.73;;
23400;SDS011;11873;49.300;8.920;2023-09-07T07:24:42;3.83;;;2.87;;
23400;SDS011;11873;49.300;8.920;2023-09-07T07:29:42;3.40;;;3.00;;
23400;SDS011;11873;49.300;8.920;2023-09-07T07:34:43;3.43;;;3.13;;
23400;SDS011;11873;49.300;8.920;2023-09-07T07:39:43;2.90;;;2.70;;
23400;SDS011;11873;49.300;8.920;2023-09-07T07:44:43;3.00;;;2.70;;
23400;SDS011;11873;49.300;8.920;2023-09-07T07:49:43;3.03;;;2.73;;
23400;SDS011;11873;49.300;8.920;2023-09-07T07:54:43;2.10;;;1.87;;
23400;SDS011;11873;49.300;8.920;2023-09-07T07:59:44;3.97;;;3.00;;
23400;SDS011;11873;49.300;8.920;2023-09-07T08:04:44;2.67;;;2.47;;
23400;SDS011;11873;49.300;8.920;2023-09-07T08:09:44;3.80;;;2.80;;
23400;SDS011;11873;49.300;8.920;2023-09-07T08:14:45;3.40;;;2.87;;
23400;SDS011;11873;49.300;8.920;2023-09-07T08:19:45;2.67;;;2.47;;
23400;SDS011;11873;49.300;8.920;2023-09-07T08:24:45;2.77;;;2.57;;
23400;SDS011;11873;49.300;8.920;2023-09-07T08:29:45;4.90;;;2.90;;
23400;SDS011;11873;49.300;8.920;2023-09-07T08:34:45;3.00;;;2.80;;
23400;SDS011;11873;49.300;8.920;2023-09-07T08:39:46;4.03;;;2.40;;
23400;SDS011;11873;49.300;8.920;2023-09-07T08:44:46;6.73;;;3.50;;
23400;SDS011;11873;49.300;8.920;2023-09-07T08:49:47;4.27;;;3.00;;
23400;SDS011;11873;49.300;8.920;2023-09-07T08:54:47;3.03;;;2.73;;
23400;SDS011;11873;49.300;8.920;2023-09-07T08:59:48;2.43;;;2.23;;
23400;SDS011;11873;49.300;8.920;2023-09-07T09:04:49;3.73;;;3.43;;
23400;SDS011;11873;49.300;8.920;2023-09-07T09:09:49;3.30;;;3.00;;
23400;SDS011;11873;49.300;8.920;2023-09-07T09:14:49;3.27;;;2.97;;
23400;SDS011;11873;49.300;8.920;2023-09-07T09:19:49;3.60;;;3.30;;
23400;SDS011;11873;49.300;8.920;2023-09-07T09:24:49;3.40;;;3.10;;
23400;SDS011;11873;49.300;8.920;2023-09-07T09:29:50;3.20;;;2.90;;
23400;SDS011;11873;49.300;8.920;2023-09-07T09:34:50;4.33;;;3.20;;
23400;SDS011;11873;49.300;8.920;2023-09-07T09:39:50;2.20;;;2.07;;
23400;SDS011;11873;49.300;8.920;2023-09-07T09:44:51;2.97;;;2.77;;
23400;SDS011;11873;49.300;8.920;2023-09-07T09:49:52;7.80;;;3.50;;
23400;SDS011;11873;49.300;8.920;2023-09-07T09:54:53;1.33;;;1.27;;
23400;SDS011;11873;49.300;8.920;2023-09-07T09:59:53;3.80;;;3.50;;
23400;SDS011;11873;49.300;8.920;2023-09-07T10:04:54;3.50;;;3.20;;
23400;SDS011;11873;49.300;8.920;2023-09-07T10:09:55;3.50;;;3.20;;
23400;SDS011;11873;49.300;8.920;2023-09-07T10:14:56;3.40;;;2.97;;
23400;SDS011;11873;49.300;8.920;2023-09-07T10:20:04;5.33;;;3.57;;
23400;SDS011;11873;49.300;8.920;2023-09-07T10:25:05;2.93;;;2.33;;
23400;SDS011;11873;49.300;8.920;2023-09-07T10:30:11;3.43;;;3.13;;
23400;SDS011;11873;49.300;8.920;2023-09-07T10:35:12;3.00;;;2.77;;
23400;SDS011;11873;49.300;8.920;2023-09-07T10:40:18;3.13;;;2.87;;
23400;SDS011;11873;49.300;8.920;2023-09-07T10:45:18;3.20;;;2.90;;
23400;SDS011;11873;49.300;8.920;2023-09-07T10:50:18;3.23;;;2.93;;
23400;SDS011;11873;49.300;8.920;2023-09-07T10:55:19;4.07;;;3.50;;
23400;SDS011;11873;49.300;8.920;2023-09-07T11:00:19;3.63;;;3.33;;
23400;SDS011;11873;49.300;8.920;2023-09-07T11:05:19;4.10;;;3.10;;
23400;SDS011;11873;49.300;8.920;2023-09-07T11:10:20;4.63;;;2.57;;
23400;SDS011;11873;49.300;8.920;2023-09-07T11:15:20;2.63;;;2.47;;
23400;SDS011;11873;49.300;8.920;2023-09-07T11:20:21;3.27;;;3.07;;
23400;SDS011;11873;49.300;8.920;2023-09-07T11:25:21;2.83;;;2.63;;
23400;SDS011;11873;49.300;8.920;2023-09-07T11:30:21;4.03;;;3.60;;
23400;SDS011;11873;49.300;8.920;2023-09-07T11:35:21;6.93;;;3.80;;
23400;SDS011;11873;49.300;8.920;2023-09-07T11:40:22;3.50;;;3.20;;
23400;SDS011;11873;49.300;8.920;2023-09-07T11:45:22;3.07;;;2.87;;
23400;SDS011;11873;49.300;8.920;2023-09-07T11:50:23;3.33;;;2.87;;
23400;SDS011;11873;49.300;8.920;2023-09-07T11:55:23;3.40;;;3.10;;
23400;SDS011;11873;49.300;8.920;2023-09-07T12:00:24;3.67;;;2.80;;
23400;SDS011;11873;49.300;8.920;2023-09-07T12:05:24;2.90;;;2.70;;
23400;SDS011;11873;49.300;8.920;2023-09-07T12:10:24;2.90;;;2.60;;
23400;SDS011;11873;49.300;8.920;2023-09-07T12:15:24;4.17;;;3.07;;
23400;SDS011;11873;49.300;8.920;2023-09-07T12:20:24;3.67;;;3.37;;
23400;SDS011;11873;49.300;8.920;2023-09-07T12:25:25;2.77;;;2.57;;
23400;SDS011;11873;49.300;8.920;2023-09-07T12:30:25;3.77;;;3.03;;
23400;SDS011;11873;49.300;8.920;2023-09-07T12:35:25;3.13;;;2.90;;
23400;SDS011;11873;49.300;8.920;2023-09-07T12:40:25;3.47;;;3.17;;
23400;SDS011;11873;49.300;8.920;2023-09-07T12:45:25;3.53;;;3.20;;
23400;SDS011;11873;49.300;8.920;2023-09-07T12:50:26;2.80;;;2.53;;
23400;SDS011;11873;49.300;8.920;2023-09-07T12:55:26;1.70;;;1.60;;
23400;SDS011;11873;49.300;8.920;2023-09-07T13:00:26;3.23;;;2.93;;
23400;SDS011;11873;49.300;8.920;2023-09-07T13:05:27;4.17;;;2.40;;
23400;SDS011;11873;49.300;8.920;2023-09-07T13:10:27;3.17;;;2.83;;
23400;SDS011;11873;49.300;8.920;2023-09-07T13:15:27;3.60;;;3.20;;
23400;SDS011;11873;49.300;8.920;2023-09-07T13:20:27;3.33;;;3.03;;
23400;SDS011;11873;49.300;8.920;2023-09-07T13:25:27;2.70;;;2.50;;
23400;SDS011;11873;49.300;8.920;2023-09-07T13:30:27;3.10;;;2.70;;
23400;SDS011;11873;49.300;8.920;2023-09-07T13:35:28;3.77;;;3.00;;
23400;SDS011;11873;49.300;8.920;2023-09-07T13:40:28;2.67;;;2.47;;
23400;SDS011;11873;49.300;8.920;2023-09-07T13:45:28;2.60;;;2.33;;
23400;SDS011;11873;49.300;8.920;2023-09-07T13:50:28;3.63;;;3.23;;
23400;SDS011;11873;49.300;8.920;2023-09-07T13:55:29;3.60;;;3.07;;
23400;SDS011;11873;49.300;8.920;2023-09-07T14:00:29;2.03;;;1.83;;
23400;SDS011;11873;49.300;8.920;2023-09-07T14:05:29;5.90;;;3.47;;
23400;SDS011;11873;49.300;8.920;2023-09-07T14:10:30;2.73;;;2.53;;
23400;SDS011;11873;49.300;8.920;2023-09-07T14:15:31;3.30;;;2.80;;
23400;SDS011;11873;49.300;8.920;2023-09-07T14:20:31;3.53;;;3.23;;
23400;SDS011;11873;49.300;8.920;2023-09-07T14:25:31;6.50;;;2.97;;
23400;SDS011;11873;49.300;8.920;2023-09-07T14:30:32;3.03;;;2.83;;
23400;SDS011;11873;49.300;8.920;2023-09-07T14:35:32;2.67;;;2.47;;
23400;SDS011;11873;49.300;8.920;2023-09-07T14:40:32;2.73;;;2.53;;
23400;SDS011;11873;49.300;8.920;2023-09-07T14:45:32;3.30;;;2.77;;
23400;SDS011;11873;49.300;8.920;2023-09-07T14:50:32;5.10;;;3.17;;
23400;SDS011;11873;49.300;8.920;2023-09-07T14:55:33;2.47;;;2.27;;
23400;SDS011;11873;49.300;8.920;2023-09-07T15:00:33;3.00;;;2.80;;
23400;SDS011;11873;49.300;8.920;2023-09-07T15:05:33;5.30;;;2.80;;
23400;SDS011;11873;49.300;8.920;2023-09-07T15:10:33;3.63;;;3.10;;
23400;SDS011;11873;49.300;8.920;2023-09-07T15:15:34;2.27;;;1.87;;
23400;SDS011;11873;49.300;8.920;2023-09-07T15:20:34;3.00;;;2.70;;
23400;SDS011;11873;49.300;8.920;2023-09-07T15:25:35;4.70;;;2.67;;
23400;SDS011;11873;49.300;8.920;2023-09-07T15:30:35;3.60;;;3.30;;
23400;SDS011;11873;49.300;8.920;2023-09-07T15:35:35;3.40;;;2.80;;
23400;SDS011;11873;49.300;8.920;2023-09-07T15:40:35;3.27;;;2.97;;
23400;SDS011;11873;49.300;8.920;2023-09-07T15:45:36;3.10;;;2.60;;
23400;SDS011;11873;49.300;8.920;2023-09-07T15:50:37;3.37;;;3.07;;
23400;SDS011;11873;49.300;8.920;2023-09-07T15:55:38;5.53;;;2.40;;
23400;SDS011;11873;49.300;8.920;2023-09-07T16:00:38;2.77;;;2.57;;
23400;SDS011;11873;49.300;8.920;2023-09-07T16:05:38;3.23;;;2.90;;
23400;SDS011;11873;49.300;8.920;2023-09-07T16:10:38;2.60;;;2.40;;
23400;SDS011;11873;49.300;8.920;2023-09-07T16:15:39;2.13;;;2.00;;
23400;SDS011;11873;49.300;8.920;2023-09-07T16:20:39;3.10;;;2.80;;
23400;SDS011;11873;49.300;8.920;2023-09-07T16:25:39;5.37;;;3.00;;
23400;SDS011;11873;49.300;8.920;2023-09-07T16:30:39;2.60;;;2.40;;
23400;SDS011;11873;49.300;8.920;2023-09-07T16:35:39;3.63;;;3.10;;
23400;SDS011;11873;49.300;8.920;2023-09-07T16:40:40;3.10;;;2.80;;
23400;SDS011;11873;49.300;8.920;2023-09-07T16:45:40;4.73;;;2.60;;
23400;SDS011;11873;49.300;8.920;2023-09-07T16:50:44;3.00;;;2.57;;
23400;SDS011;11873;49.300;8.920;2023-09-07T16:55:44;3.90;;;2.83;;
23400;SDS011;11873;49.300;8.920;2023-09-07T17:00:44;3.20;;;2.93;;
23400;SDS011;11873;49.300;8.920;2023-09-07T17:05:44;3.53;;;2.80;;
23400;SDS011;11873;49.300;8.920;2023-09-07T17:10:44;3.13;;;2.83;;
23400;SDS011;11873;49.300;8.920;2023-09-07T17:15:48;2.87;;;2.53;;
23400;SDS011;11873;49.300;8.920;2023-09-07T17:20:49;3.13;;;2.60;;
23400;SDS011;11873;49.300;8.920;2023-09-07T17:25:52;2.90;;;2.70;;
23400;SDS011;11873;49.300;8.920;2023-09-07T17:30:52;2.80;;;2.60;;
23400;SDS011;11873;49.300;8.920;2023-09-07T17:35:52;4.87;;;2.77;;
23400;SDS011;11873;49.300;8.920;2023-09-07T17:40:52;6.13;;;2.57;;
23400;SDS011;11873;49.300;8.920;2023-09-07T17:45:52;3.90;;;3.40;;
23400;SDS011;11873;49.300;8.920;2023-09-07T17:50:53;4.20;;;3.10;;
23400;SDS011;11873;49.300;8.920;2023-09-07T17:55:53;4.10;;;3.30;;
23400;SDS011;11873;49.300;8.920;2023-09-07T18:00:53;3.63;;;3.30;;
23400;SDS011;11873;49.300;8.920;2023-09-07T18:05:53;3.97;;;3.30;;
23400;SDS011;11873;49.300;8.920;2023-09-07T18:10:53;3.50;;;3.20;;
23400;SDS011;11873;49.300;8.920;2023-09-07T18:15:54;6.57;;;3.83;;
23400;SDS011;11873;49.300;8.920;2023-09-07T18:20:54;4.53;;;3.87;;
23400;SDS011;11873;49.300;8.920;2023-09-07T18:25:54;6.33;;;3.40;;
23400;SDS011;11873;49.300;8.920;2023-09-07T18:30:54;4.30;;;3.30;;
23400;SDS011;11873;49.300;8.920;2023-09-07T18:36:01;4.57;;;3.30;;
23400;SDS011;11873;49.300;8.920;2023-09-07T18:41:01;4.67;;;3.60;;
23400;SDS011;11873;49.300;8.920;2023-09-07T18:46:03;7.57;;;3.90;;
23400;SDS011;11873;49.300;8.920;2023-09-07T18:51:04;4.77;;;3.90;;
23400;SDS011;11873;49.300;8.920;2023-09-07T18:56:04;5.17;;;3.77;;
23400;SDS011;11873;49.300;8.920;2023-09-07T19:01:12;4.37;;;3.50;;
23400;SDS011;11873;49.300;8.920;2023-09-07T19:06:12;6.87;;;3.63;;
23400;SDS011;11873;49.300;8.920;2023-09-07T19:11:13;5.72;;;3.55;;
23400;SDS011;11873;49.300;8.920;2023-09-07T19:16:13;7.17;;;4.80;;
23400;SDS011;11873;49.300;8.920;2023-09-07T19:21:13;4.37;;;3.87;;
23400;SDS011;11873;49.300;8.920;2023-09-07T19:31:33;5.83;;;3.83;;
23400;SDS011;11873;49.300;8.920;2023-09-07T19:36:33;5.00;;;3.40;;
23400;SDS011;11873;49.300;8.920;2023-09-07T19:41:33;3.43;;;3.13;;
23400;SDS011;11873;49.300;8.920;2023-09-07T19:46:33;4.50;;;3.60;;
23400;SDS011;11873;49.300;8.920;2023-09-07T19:51:34;3.87;;;3.57;;
23400;SDS011;11873;49.300;8.920;2023-09-07T19:56:34;4.07;;;3.63;;
23400;SDS011;11873;49.300;8.920;2023-09-07T20:06:53;4.47;;;4.07;;
23400;SDS011;11873;49.300;8.920;2023-09-07T20:11:53;4.40;;;4.00;;
23400;SDS011;11873;49.300;8.920;2023-09-07T20:16:53;4.23;;;3.83;;
23400;SDS011;11873;49.300;8.920;2023-09-07T20:21:53;4.27;;;3.87;;
23400;SDS011;11873;49.300;8.920;2023-09-07T20:26:54;6.03;;;3.57;;
23400;SDS011;11873;49.300;8.920;2023-09-07T20:31:54;4.53;;;3.60;;
23400;SDS011;11873;49.300;8.920;2023-09-07T20:36:54;4.83;;;3.97;;
23400;SDS011;11873;49.300;8.920;2023-09-07T20:41:55;7.07;;;4.40;;
23400;SDS011;11873;49.300;8.920;2023-09-07T20:46:56;6.53;;;4.10;;
23400;SDS011;11873;49.300;8.920;2023-09-07T20:51:56;4.97;;;3.80;;
23400;SDS011;11873;49.300;8.920;2023-09-07T20:56:56;4.67;;;4.17;;
23400;SDS011;11873;49.300;8.920;2023-09-07T21:01:56;4.43;;;4.03;;
23400;SDS011;11873;49.300;8.920;2023-09-07T21:06:57;5.57;;;4.10;;
23400;SDS011;11873;49.300;8.920;2023-09-07T21:11:57;4.10;;;3.80;;
23400;SDS011;11873;49.300;8.920;2023-09-07T21:16:57;4.33;;;3.83;;
23400;SDS011;11873;49.300;8.920;2023-09-07T21:21:57;4.37;;;3.63;;
23400;SDS011;11873;49.300;8.920;2023-09-07T21:26:57;4.23;;;3.83;;
23400;SDS011;11873;49.300;8.920;2023-09-07T21:31:57;4.67;;;3.83;;
23400;SDS011;11873;49.300;8.920;2023-09-07T21:36:58;4.63;;;3.80;;
23400;SDS011;11873;49.300;8.920;2023-09-07T21:41:58;4.20;;;3.80;;
23400;SDS011;11873;49.300;8.920;2023-09-07T21:46:58;4.17;;;3.87;;
23400;SDS011;11873;49.300;8.920;2023-09-07T21:51:58;4.50;;;3.67;;
23400;SDS011;11873;49.300;8.920;2023-09-07T21:56:58;5.33;;;3.93;;
23400;SDS011;11873;49.300;8.920;2023-09-07T22:01:59;5.60;;;4.30;;
23400;SDS011;11873;49.300;8.920;2023-09-07T22:06:59;3.83;;;3.40;;
23400;SDS011;11873;49.300;8.920;2023-09-07T22:11:59;4.83;;;3.60;;
23400;SDS011;11873;49.300;8.920;2023-09-07T22:17:00;6.63;;;4.37;;
23400;SDS011;11873;49.300;8.920;2023-09-07T22:22:00;4.43;;;4.03;;
23400;SDS011;11873;49.300;8.920;2023-09-07T22:27:00;4.77;;;3.57;;
23400;SDS011;11873;49.300;8.920;2023-09-07T22:32:00;4.50;;;4.10;;
23400;SDS011;11873;49.300;8.920;2023-09-07T22:37:01;4.37;;;3.97;;
23400;SDS011;11873;49.300;8.920;2023-09-07T22:42:01;5.07;;;3.77;;
23400;SDS011;11873;49.300;8.920;2023-09-07T22:47:01;4.97;;;4.20;;
23400;SDS011;11873;49.300;8.920;2023-09-07T22:52:01;4.17;;;3.77;;
23400;SDS011;11873;49.300;8.920;2023-09-07T22:57:02;7.03;;;4.20;;
23400;SDS011;11873;49.300;8.920;2023-09-07T23:02:02;5.07;;;3.93;;
23400;SDS011;11873;49.300;8.920;2023-09-07T23:07:02;4.80;;;3.80;;
23400;SDS011;11873;49.300;8.920;2023-09-07T23:12:02;3.87;;;3.57;;
23400;SDS011;11873;49.300;8.920;2023-09-07T23:17:03;4.07;;;3.67;;
23400;SDS011;11873;49.300;8.920;2023-09-07T23:22:03;5.73;;;3.97;;
23400;SDS011;11873;49.300;8.920;2023-09-07T23:27:03;3.87;;;3.57;;
23400;SDS011;11873;49.300;8.920;2023-09-07T23:32:03;4.10;;;3.80;;
23400;SDS011;11873;49.300;8.920;2023-09-07T23:37:03;4.43;;;4.00;;
23400;SDS011;11873;49.300;8.920;2023-09-07T23:42:04;4.87;;;4.03;;
23400;SDS011;11873;49.300;8.920;2023-09-07T23:47:04;5.20;;;4.70;;
23400;SDS011;11873;49.300;8.920;2023-09-07T23:52:04;5.03;;;4.20;;
23400;SDS011;11873;49.300;8.920;2023-09-07T23:57:04;5.70;;;4.22;;
